createdAt,value
2019-02-15T00:02:03.667Z,23.70
2019-02-15T00:04:31.902Z,29.40
2019-02-15T00:07:00.155Z,30.57
2019-02-15T00:09:28.392Z,23.32
2019-02-15T00:11:56.631Z,26.00
2019-02-15T00:14:24.939Z,23.73
2019-02-15T00:16:53.202Z,21.02
2019-02-15T00:19:29.279Z,27.77
2019-02-15T00:24:25.155Z,20.60
2019-02-15T00:26:53.396Z,20.72
2019-02-15T00:29:21.720Z,22.60
2019-02-15T00:31:49.946Z,22.58
2019-02-15T00:34:18.171Z,14.75
2019-02-15T00:36:46.408Z,21.80
2019-02-15T00:39:14.643Z,13.78
2019-02-15T00:41:42.893Z,21.90
2019-02-15T00:44:11.107Z,15.93
2019-02-15T00:46:40.992Z,19.10
2019-02-15T00:49:10.706Z,17.67
2019-02-15T00:51:55.969Z,19.02
2019-02-15T00:54:28.563Z,25.12
2019-02-15T00:56:58.434Z,19.80
2019-02-15T00:59:28.341Z,16.57
2019-02-15T01:02:13.558Z,19.32
2019-02-15T01:04:58.465Z,20.52
2019-02-15T01:07:34.084Z,20.57
2019-02-15T01:10:12.986Z,20.00
2019-02-15T01:12:42.868Z,20.45
2019-02-15T01:15:11.110Z,15.95
2019-02-15T01:17:39.339Z,22.67
2019-02-15T01:20:07.582Z,19.57
2019-02-15T01:22:35.824Z,18.17
2019-02-15T01:25:05.162Z,20.97
2019-02-15T01:27:35.044Z,17.15
2019-02-15T01:30:11.498Z,20.10
2019-02-15T01:32:44.051Z,22.00
2019-02-15T01:35:16.667Z,20.70
2019-02-15T01:37:49.807Z,20.23
2019-02-15T01:40:37.617Z,19.98
2019-02-15T01:43:13.256Z,16.00
2019-02-15T01:45:43.134Z,15.05
2019-02-15T01:48:11.383Z,22.40
2019-02-15T01:50:39.619Z,21.35
2019-02-15T01:53:07.862Z,17.10
2019-02-15T01:55:36.119Z,21.52
2019-02-15T01:58:04.471Z,24.77
2019-02-15T02:00:33.227Z,20.50
2019-02-15T02:03:01.455Z,19.48
2019-02-15T02:05:29.707Z,17.95
2019-02-15T02:07:57.958Z,22.62
2019-02-15T02:10:26.186Z,22.67
2019-02-15T02:12:54.424Z,21.55
2019-02-15T02:15:22.664Z,20.02
2019-02-15T02:17:50.909Z,21.05
2019-02-15T02:20:19.132Z,22.75
2019-02-15T02:22:47.390Z,16.12
2019-02-15T02:25:15.629Z,21.48
2019-02-15T02:27:43.893Z,19.73
2019-02-15T02:30:12.128Z,20.35
2019-02-15T02:32:40.360Z,23.12
2019-02-15T02:35:09.023Z,21.17
2019-02-15T02:37:37.277Z,18.62
2019-02-15T02:40:07.782Z,17.05
2019-02-15T02:42:36.014Z,22.42
2019-02-15T02:45:06.387Z,24.30
2019-02-15T02:47:34.622Z,24.50
2019-02-15T02:50:03.133Z,17.12
2019-02-15T02:52:31.377Z,24.15
2019-02-15T02:54:59.603Z,20.43
2019-02-15T02:57:27.824Z,23.42
2019-02-15T02:59:56.078Z,19.92
2019-02-15T03:02:24.326Z,21.57
2019-02-15T03:04:52.615Z,20.15
2019-02-15T03:07:20.862Z,17.62
2019-02-15T03:09:49.113Z,22.75
2019-02-15T03:12:17.343Z,21.85
2019-02-15T03:14:45.580Z,18.70
2019-02-15T03:17:33.241Z,21.15
2019-02-15T03:20:01.560Z,19.23
2019-02-15T03:22:29.813Z,19.77
2019-02-15T03:24:58.050Z,21.62
2019-02-15T03:27:26.306Z,18.25
2019-02-15T03:29:54.608Z,17.50
2019-02-15T03:32:22.849Z,20.08
2019-02-15T03:34:51.145Z,16.95
2019-02-15T03:37:23.745Z,19.85
2019-02-15T03:39:53.638Z,21.27
2019-02-15T03:42:21.879Z,19.07
2019-02-15T03:44:50.125Z,18.70
2019-02-15T03:47:20.014Z,19.17
2019-02-15T03:49:48.244Z,20.90
2019-02-15T03:52:16.510Z,17.70
2019-02-15T03:54:44.729Z,19.65
2019-02-15T03:57:12.977Z,23.67
2019-02-15T03:59:41.281Z,19.37
2019-02-15T04:02:09.534Z,16.95
2019-02-15T04:04:37.754Z,23.55
2019-02-15T04:07:05.999Z,20.85
2019-02-15T04:09:34.239Z,25.97
2019-02-15T04:12:02.503Z,18.25
2019-02-15T04:14:32.991Z,19.50
2019-02-15T04:17:00.745Z,17.85
2019-02-15T04:19:28.998Z,25.75
2019-02-15T04:21:57.221Z,20.37
2019-02-15T04:24:25.451Z,17.92
2019-02-15T04:26:53.687Z,19.77
2019-02-15T04:29:21.916Z,19.57
2019-02-15T04:31:50.171Z,17.65
2019-02-15T04:34:18.407Z,21.45
2019-02-15T04:36:46.649Z,20.75
2019-02-15T04:39:14.899Z,18.00
2019-02-15T04:41:43.132Z,24.02
2019-02-15T04:44:11.382Z,17.15
2019-02-15T04:46:39.615Z,20.02
2019-02-15T04:49:07.861Z,21.85
2019-02-15T04:51:36.099Z,18.05
2019-02-15T04:54:04.320Z,18.70
2019-02-15T04:56:32.569Z,18.05
2019-02-15T04:59:00.814Z,21.97
2019-02-15T05:01:29.062Z,27.05
2019-02-15T05:03:57.286Z,17.62
2019-02-15T05:06:25.649Z,22.73
2019-02-15T05:08:53.858Z,21.20
2019-02-15T05:11:22.108Z,21.48
2019-02-15T05:13:50.346Z,17.98
2019-02-15T05:16:18.590Z,22.45
2019-02-15T05:18:46.831Z,16.93
2019-02-15T05:21:15.076Z,21.68
2019-02-15T05:23:43.317Z,18.32
2019-02-15T05:26:11.541Z,17.12
2019-02-15T05:28:39.943Z,17.12
2019-02-15T05:31:08.243Z,19.37
2019-02-15T05:33:36.471Z,19.62
2019-02-15T05:36:04.721Z,18.00
2019-02-15T05:38:32.956Z,20.15
2019-02-15T05:41:01.178Z,19.10
2019-02-15T05:43:29.430Z,21.48
2019-02-15T05:45:57.645Z,19.90
2019-02-15T05:48:25.889Z,21.85
2019-02-15T05:50:54.138Z,15.23
2019-02-15T05:53:22.386Z,33.83
2019-02-15T05:55:50.625Z,38.90
2019-02-15T05:58:18.884Z,42.58
2019-02-15T06:00:47.212Z,36.25
2019-02-15T06:03:15.453Z,30.68
2019-02-15T06:05:43.671Z,31.93
2019-02-15T06:08:11.913Z,26.52
2019-02-15T06:10:40.144Z,31.65
2019-02-15T06:13:08.390Z,22.52
2019-02-15T06:15:36.642Z,24.65
2019-02-15T06:18:04.921Z,23.38
2019-02-15T06:20:33.157Z,21.68
2019-02-15T06:23:01.389Z,21.60
2019-02-15T06:25:29.642Z,25.32
2019-02-15T06:27:57.889Z,19.30
2019-02-15T06:30:26.124Z,22.40
2019-02-15T06:32:54.373Z,25.43
2019-02-15T06:35:22.616Z,22.48
2019-02-15T06:37:50.902Z,20.02
2019-02-15T06:40:19.139Z,20.60
2019-02-15T06:42:47.379Z,18.67
2019-02-15T06:45:24.045Z,22.15
2019-02-15T06:47:45.584Z,18.50
2019-02-15T06:50:13.841Z,22.75
2019-02-15T06:52:42.074Z,18.10
2019-02-15T06:55:10.295Z,17.65
2019-02-15T06:57:38.544Z,17.17
2019-02-15T07:00:14.247Z,16.70
2019-02-15T07:02:47.205Z,19.65
2019-02-15T07:05:23.237Z,20.90
2019-02-15T07:10:19.019Z,21.60
2019-02-15T07:12:47.324Z,21.05
2019-02-15T07:15:15.558Z,27.93
2019-02-15T07:17:43.820Z,24.12
2019-02-15T07:20:12.040Z,27.30
2019-02-15T07:22:40.290Z,33.18
2019-02-15T07:25:10.579Z,24.87
2019-02-15T07:27:38.806Z,32.03
2019-02-15T07:30:12.227Z,34.73
2019-02-15T07:32:40.455Z,31.12
2019-02-15T07:35:09.343Z,40.35
2019-02-15T07:37:37.574Z,35.48
2019-02-15T07:40:07.744Z,38.17
2019-02-15T07:42:35.981Z,32.30
2019-02-15T07:45:05.862Z,27.70
2019-02-15T07:47:34.088Z,22.45
2019-02-15T07:50:02.338Z,24.32
2019-02-15T07:52:30.571Z,22.62
2019-02-15T07:54:58.809Z,22.42
2019-02-15T07:57:27.045Z,27.17
2019-02-15T07:59:55.298Z,27.00
2019-02-15T08:02:23.553Z,23.90
2019-02-15T08:04:51.841Z,23.22
2019-02-15T08:07:20.110Z,21.00
2019-02-15T08:09:48.350Z,22.27
2019-02-15T08:12:16.581Z,21.17
2019-02-15T08:14:44.837Z,24.70
2019-02-15T08:17:13.050Z,22.13
2019-02-15T08:19:41.292Z,23.15
2019-02-15T08:22:09.549Z,87.92
2019-02-15T08:24:37.789Z,33.88
2019-02-15T08:27:06.038Z,27.22
2019-02-15T08:29:37.651Z,23.25
2019-02-15T08:32:07.487Z,20.90
2019-02-15T08:34:35.725Z,25.15
2019-02-15T08:37:03.976Z,21.48
2019-02-15T08:39:32.211Z,19.40
2019-02-15T08:42:03.867Z,19.48
2019-02-15T08:44:30.425Z,22.65
2019-02-15T08:46:58.674Z,22.10
2019-02-15T08:49:27.753Z,19.67
2019-02-15T08:51:56.011Z,21.93
2019-02-15T08:54:24.243Z,20.52
2019-02-15T08:56:52.484Z,22.55
2019-02-15T08:59:20.722Z,21.68
2019-02-15T09:01:50.596Z,27.25
2019-02-15T09:04:18.840Z,27.90
2019-02-15T09:06:47.089Z,23.12
2019-02-15T09:09:15.321Z,20.68
2019-02-15T09:11:43.563Z,26.52
2019-02-15T09:14:11.811Z,24.18
2019-02-15T09:16:40.036Z,19.50
2019-02-15T09:19:08.270Z,27.00
2019-02-15T09:21:36.504Z,25.37
2019-02-15T09:24:04.770Z,19.15
2019-02-15T09:26:33.018Z,25.30
2019-02-15T09:29:02.936Z,19.80
2019-02-15T09:31:31.193Z,17.57
2019-02-15T09:33:59.434Z,18.45
2019-02-15T09:36:27.676Z,17.80
2019-02-15T09:38:55.905Z,14.78
2019-02-15T09:41:24.145Z,19.05
2019-02-15T09:43:52.379Z,19.67
2019-02-15T09:46:20.694Z,15.78
2019-02-15T09:48:48.958Z,20.00
2019-02-15T09:51:17.187Z,19.17
2019-02-15T09:53:45.458Z,17.82
2019-02-15T09:56:13.763Z,19.25
2019-02-15T09:58:42.021Z,15.53
2019-02-15T10:01:10.249Z,20.45
2019-02-15T10:03:38.485Z,15.78
2019-02-15T10:06:06.722Z,19.32
2019-02-15T10:08:34.962Z,16.48
2019-02-15T10:11:03.204Z,17.35
2019-02-15T10:13:31.479Z,19.52
2019-02-15T10:15:59.701Z,17.27
2019-02-15T10:18:27.941Z,15.45
2019-02-15T10:20:56.186Z,15.05
2019-02-15T10:23:24.478Z,13.35
2019-02-15T10:25:52.751Z,16.97
2019-02-15T10:28:20.988Z,18.50
2019-02-15T10:30:49.236Z,16.30
2019-02-15T10:33:17.499Z,15.83
2019-02-15T10:35:45.750Z,15.25
2019-02-15T10:38:13.987Z,14.00
2019-02-15T10:40:42.228Z,14.63
2019-02-15T10:43:10.490Z,18.00
2019-02-15T10:45:38.779Z,14.10
2019-02-15T10:48:07.054Z,17.60
2019-02-15T10:50:35.300Z,17.82
2019-02-15T10:53:03.541Z,15.70
2019-02-15T10:55:31.789Z,13.78
2019-02-15T10:58:00.041Z,14.35
2019-02-15T11:00:28.341Z,13.68
2019-02-15T11:02:56.562Z,14.90
2019-02-15T11:05:24.799Z,14.07
2019-02-15T11:07:53.031Z,15.65
2019-02-15T11:10:21.289Z,12.53
2019-02-15T11:12:49.577Z,14.63
2019-02-15T11:15:17.880Z,13.68
2019-02-15T11:17:46.138Z,15.75
2019-02-15T11:20:16.096Z,14.78
2019-02-15T11:22:44.332Z,14.13
2019-02-15T11:25:12.555Z,9.70
2019-02-15T11:27:40.808Z,10.25
2019-02-15T11:30:11.478Z,7.20
2019-02-15T11:32:40.098Z,9.95
2019-02-15T11:35:12.506Z,7.58
2019-02-15T11:37:40.754Z,10.18
2019-02-15T11:40:12.228Z,12.23
2019-02-15T11:42:40.480Z,4.35
2019-02-15T11:45:10.846Z,7.15
2019-02-15T11:47:39.089Z,2.35
2019-02-15T11:50:09.961Z,3.72
2019-02-15T11:52:38.276Z,4.35
2019-02-15T11:55:08.560Z,2.75
2019-02-15T11:57:36.779Z,2.65
2019-02-15T12:00:14.126Z,3.22
2019-02-15T12:02:39.195Z,4.40
2019-02-15T12:05:08.863Z,2.10
2019-02-15T12:07:37.094Z,3.37
2019-02-15T12:10:10.288Z,4.00
2019-02-15T12:12:38.520Z,4.05
2019-02-15T12:15:08.503Z,3.02
2019-02-15T12:17:36.724Z,3.92
2019-02-15T12:20:08.523Z,2.55
2019-02-15T12:22:36.740Z,2.12
2019-02-15T12:25:05.713Z,3.27
2019-02-15T12:27:33.956Z,2.12
2019-02-15T12:30:02.190Z,4.55
2019-02-15T12:32:30.441Z,2.10
2019-02-15T12:34:58.672Z,2.20
2019-02-15T12:37:26.912Z,2.62
2019-02-15T12:39:55.143Z,1.80
2019-02-15T12:42:23.390Z,1.95
2019-02-15T12:44:51.646Z,2.02
2019-02-15T12:47:19.873Z,1.15
2019-02-15T12:49:48.090Z,1.70
2019-02-15T12:52:16.343Z,1.00
2019-02-15T12:54:44.554Z,1.17
2019-02-15T12:57:12.810Z,0.70
2019-02-15T12:59:41.075Z,1.10
2019-02-15T13:02:09.305Z,1.05
2019-02-15T13:04:37.538Z,1.30
2019-02-15T13:07:05.815Z,1.25
2019-02-15T13:09:34.061Z,3.10
2019-02-15T13:12:02.288Z,1.25
2019-02-15T13:14:30.548Z,1.02
2019-02-15T13:16:58.770Z,0.90
2019-02-15T13:19:27.005Z,0.80
2019-02-15T13:21:55.239Z,1.95
2019-02-15T13:24:23.477Z,1.52
2019-02-15T13:26:51.712Z,1.10
2019-02-15T13:29:19.944Z,1.82
2019-02-15T13:31:48.169Z,1.80
2019-02-15T13:34:16.410Z,1.67
2019-02-15T13:36:44.647Z,2.72
2019-02-15T13:39:12.882Z,1.15
2019-02-15T13:41:41.157Z,1.67
2019-02-15T13:44:09.398Z,2.47
2019-02-15T13:46:37.638Z,1.27
2019-02-15T13:49:05.866Z,1.95
2019-02-15T13:51:34.122Z,2.15
2019-02-15T13:54:02.381Z,1.62
2019-02-15T13:56:30.622Z,2.02
2019-02-15T13:58:58.862Z,4.65
2019-02-15T14:01:27.118Z,2.45
2019-02-15T14:03:55.344Z,2.47
2019-02-15T14:06:23.578Z,2.35
2019-02-15T14:08:51.812Z,16.30
2019-02-15T14:11:20.075Z,3.60
2019-02-15T14:13:48.305Z,12.10
2019-02-15T14:16:16.539Z,14.45
2019-02-15T14:18:44.789Z,9.15
2019-02-15T14:21:13.036Z,18.73
2019-02-15T14:23:41.285Z,7.05
2019-02-15T14:26:09.517Z,6.10
2019-02-15T14:28:37.739Z,6.75
2019-02-15T14:31:05.991Z,4.40
2019-02-15T14:33:34.224Z,5.87
2019-02-15T14:36:02.464Z,4.58
2019-02-15T14:38:30.717Z,7.50
2019-02-15T14:40:58.953Z,2.58
2019-02-15T14:43:27.181Z,5.28
2019-02-15T14:45:55.409Z,4.92
2019-02-15T14:48:23.646Z,6.60
2019-02-15T14:50:51.916Z,4.40
2019-02-15T14:53:20.214Z,6.67
2019-02-15T14:55:48.471Z,4.10
2019-02-15T14:58:16.692Z,3.17
2019-02-15T15:00:44.935Z,2.55
2019-02-15T15:03:13.175Z,3.00
2019-02-15T15:05:41.390Z,3.02
2019-02-15T15:08:09.641Z,3.72
2019-02-15T15:10:37.885Z,4.12
2019-02-15T15:13:06.127Z,5.75
2019-02-15T15:15:34.372Z,4.97
2019-02-15T15:18:12.671Z,2.98
2019-02-15T15:20:32.571Z,3.75
2019-02-15T15:23:00.787Z,4.90
2019-02-15T15:25:29.040Z,3.22
2019-02-15T15:27:57.291Z,3.37
2019-02-15T15:30:25.524Z,2.70
2019-02-15T15:32:53.760Z,2.87
2019-02-15T15:35:21.997Z,3.60
2019-02-15T15:37:50.245Z,3.62
2019-02-15T15:40:18.463Z,5.92
2019-02-15T15:42:46.706Z,3.62
2019-02-15T15:45:14.938Z,4.67
2019-02-15T15:47:43.202Z,2.60
2019-02-15T15:50:12.066Z,3.50
2019-02-15T15:52:40.284Z,3.90
2019-02-15T15:55:11.343Z,5.67
2019-02-15T15:57:39.575Z,4.00
2019-02-15T16:00:15.292Z,3.55
2019-02-15T16:02:43.530Z,6.40
2019-02-15T16:05:11.768Z,6.45
2019-02-15T16:07:40.017Z,5.50
2019-02-15T16:10:15.240Z,5.85
2019-02-15T16:12:43.478Z,4.60
2019-02-15T16:15:12.886Z,6.10
2019-02-15T16:17:41.182Z,6.85
2019-02-15T16:20:12.953Z,8.20
2019-02-15T16:22:41.184Z,5.17
2019-02-15T16:25:09.942Z,7.75
2019-02-15T16:27:38.172Z,5.12
2019-02-15T16:30:09.917Z,5.28
2019-02-15T16:32:38.169Z,7.00
2019-02-15T16:35:06.853Z,6.22
2019-02-15T16:37:35.102Z,8.03
2019-02-15T16:40:03.795Z,6.15
2019-02-15T16:42:32.100Z,5.83
2019-02-15T16:45:00.402Z,6.65
2019-02-15T16:47:28.641Z,7.97
2019-02-15T16:49:56.869Z,7.05
2019-02-15T16:52:25.078Z,8.48
2019-02-15T16:54:53.371Z,6.65
2019-02-15T16:57:21.574Z,7.72
2019-02-15T16:59:49.840Z,8.28
2019-02-15T17:02:18.034Z,6.55
2019-02-15T17:04:47.793Z,12.63
2019-02-15T17:07:21.497Z,5.65
2019-02-15T17:09:50.135Z,9.70
2019-02-15T17:12:18.547Z,8.65
2019-02-15T17:14:57.543Z,6.83
2019-02-15T17:17:17.197Z,6.67
2019-02-15T17:19:45.458Z,6.47
2019-02-15T17:22:19.124Z,10.63
2019-02-15T17:24:47.186Z,8.83
2019-02-15T17:27:15.616Z,7.62
2019-02-15T17:29:43.857Z,9.03
2019-02-15T17:32:12.143Z,9.88
2019-02-15T17:34:40.540Z,9.40
2019-02-15T17:37:08.965Z,6.45
2019-02-15T17:39:37.397Z,9.38
2019-02-15T17:42:05.788Z,9.55
2019-02-15T17:44:34.110Z,11.22
2019-02-15T17:47:02.340Z,10.58
2019-02-15T17:49:31.598Z,8.03
2019-02-15T17:52:03.221Z,8.40
2019-02-15T17:54:31.492Z,9.15
2019-02-15T17:56:59.781Z,10.55
2019-02-15T17:59:28.052Z,9.93
2019-02-15T18:01:56.393Z,10.60
2019-02-15T18:04:24.676Z,9.78
2019-02-15T18:06:52.932Z,11.03
2019-02-15T18:09:21.190Z,10.00
2019-02-15T18:11:50.852Z,8.20
2019-02-15T18:14:19.068Z,8.75
2019-02-15T18:16:47.334Z,15.48
2019-02-15T18:19:15.619Z,10.68
2019-02-15T18:21:43.885Z,11.10
2019-02-15T18:24:13.583Z,10.70
2019-02-15T18:26:41.867Z,11.40
2019-02-15T18:29:10.123Z,12.10
2019-02-15T18:31:38.352Z,15.05
2019-02-15T18:34:06.940Z,15.72
2019-02-15T18:36:35.166Z,19.67
2019-02-15T18:39:04.450Z,20.32
2019-02-15T18:41:32.704Z,13.03
2019-02-15T18:44:00.944Z,15.03
2019-02-15T18:46:29.181Z,12.88
2019-02-15T18:48:57.406Z,11.83
2019-02-15T18:51:25.670Z,10.85
2019-02-15T18:53:53.975Z,11.80
2019-02-15T18:56:22.203Z,10.45
2019-02-15T18:58:50.445Z,18.37
2019-02-15T19:01:18.682Z,10.15
2019-02-15T19:03:46.937Z,14.13
2019-02-15T19:06:15.183Z,13.25
2019-02-15T19:08:43.452Z,14.30
2019-02-15T19:11:11.674Z,11.45
2019-02-15T19:13:39.896Z,12.88
2019-02-15T19:16:08.128Z,16.07
2019-02-15T19:18:36.445Z,14.78
2019-02-15T19:21:04.762Z,13.45
2019-02-15T19:23:32.979Z,13.68
2019-02-15T19:26:01.233Z,16.77
2019-02-15T19:28:29.494Z,16.70
2019-02-15T19:30:57.715Z,13.85
2019-02-15T19:33:25.930Z,10.08
2019-02-15T19:35:54.177Z,13.58
2019-02-15T19:38:22.607Z,13.48
2019-02-15T19:40:50.820Z,13.78
2019-02-15T19:43:19.056Z,13.40
2019-02-15T19:45:48.414Z,14.00
2019-02-15T19:48:16.648Z,15.38
2019-02-15T19:50:44.898Z,10.85
2019-02-15T19:53:13.134Z,13.20
2019-02-15T19:55:41.383Z,12.25
2019-02-15T19:58:09.616Z,12.88
2019-02-15T20:00:37.859Z,14.40
2019-02-15T20:03:09.667Z,14.38
2019-02-15T20:05:37.890Z,12.53
2019-02-15T20:08:06.111Z,11.97
2019-02-15T20:10:34.348Z,21.15
2019-02-15T20:13:02.579Z,17.27
2019-02-15T20:15:30.805Z,14.53
2019-02-15T20:17:59.061Z,14.23
2019-02-15T20:20:27.284Z,15.00
2019-02-15T20:22:55.527Z,15.80
2019-02-15T20:25:23.782Z,13.58
2019-02-15T20:27:51.999Z,13.83
2019-02-15T20:30:24.171Z,17.37
2019-02-15T20:32:52.390Z,16.75
2019-02-15T20:35:20.631Z,18.45
2019-02-15T20:37:48.868Z,14.43
2019-02-15T20:40:17.122Z,18.62
2019-02-15T20:42:45.345Z,18.87
2019-02-15T20:45:16.674Z,11.90
2019-02-15T20:47:44.919Z,13.20
2019-02-15T20:50:13.604Z,16.32
2019-02-15T20:52:41.847Z,14.65
2019-02-15T20:55:12.903Z,15.65
2019-02-15T20:57:41.108Z,15.85
2019-02-15T21:00:11.893Z,13.38
2019-02-15T21:02:40.139Z,14.25
2019-02-15T21:05:09.920Z,12.53
2019-02-15T21:07:38.150Z,13.15
2019-02-15T21:10:09.636Z,16.12
2019-02-15T21:12:39.549Z,17.42
2019-02-15T21:15:12.961Z,13.68
2019-02-15T21:17:41.253Z,14.58
2019-02-15T21:20:11.347Z,15.20
2019-02-15T21:22:39.574Z,12.30
2019-02-15T21:25:12.095Z,11.33
2019-02-15T21:27:40.329Z,18.05
2019-02-15T21:30:11.318Z,16.05
2019-02-15T21:32:39.553Z,15.65
2019-02-15T21:35:07.969Z,12.35
2019-02-15T21:37:36.222Z,12.45
2019-02-15T21:40:07.403Z,13.90
2019-02-15T21:42:35.628Z,12.90
2019-02-15T21:45:04.626Z,13.03
2019-02-15T21:47:32.860Z,18.52
2019-02-15T21:50:01.117Z,21.85
2019-02-15T21:52:29.365Z,32.30
2019-02-15T21:54:57.597Z,23.55
2019-02-15T21:57:25.842Z,23.92
2019-02-15T21:59:54.082Z,20.92
2019-02-15T22:02:22.324Z,15.20
2019-02-15T22:04:50.562Z,14.80
2019-02-15T22:07:19.368Z,15.78
2019-02-15T22:09:47.582Z,14.87
2019-02-15T22:12:15.843Z,14.15
2019-02-15T22:14:44.084Z,14.70
2019-02-15T22:17:12.329Z,12.47
2019-02-15T22:19:40.608Z,15.80
2019-02-15T22:22:08.925Z,16.55
2019-02-15T22:24:37.175Z,20.25
2019-02-15T22:27:05.424Z,18.32
2019-02-15T22:29:33.675Z,19.32
2019-02-15T22:32:01.898Z,19.20
2019-02-15T22:34:30.173Z,22.70
2019-02-15T22:36:58.477Z,26.70
2019-02-15T22:39:26.731Z,19.48
2019-02-15T22:41:54.977Z,14.65
2019-02-15T22:44:23.212Z,14.80
2019-02-15T22:46:51.454Z,17.77
2019-02-15T22:49:19.667Z,12.73
2019-02-15T22:51:48.067Z,19.50
2019-02-15T22:54:16.253Z,17.65
2019-02-15T22:56:44.495Z,15.35
2019-02-15T22:59:12.724Z,18.50
2019-02-15T23:01:40.973Z,13.18
2019-02-15T23:04:09.216Z,15.23
2019-02-15T23:06:37.442Z,13.53
2019-02-15T23:09:07.702Z,15.45
2019-02-15T23:11:36.002Z,14.47
2019-02-15T23:14:04.264Z,17.92
2019-02-15T23:16:32.495Z,15.90
2019-02-15T23:19:00.724Z,15.98
2019-02-15T23:21:28.958Z,15.15
2019-02-15T23:23:57.200Z,14.38
2019-02-15T23:26:25.491Z,15.65
2019-02-15T23:28:53.724Z,14.30
2019-02-15T23:31:21.947Z,17.57
2019-02-15T23:33:50.201Z,13.43
2019-02-15T23:36:18.448Z,15.70
2019-02-15T23:38:46.698Z,18.92
2019-02-15T23:41:14.934Z,17.75
2019-02-15T23:43:43.182Z,21.02
2019-02-15T23:46:11.444Z,18.12
2019-02-15T23:48:39.749Z,16.57
2019-02-15T23:51:08.005Z,18.00
2019-02-15T23:53:36.242Z,16.10
2019-02-15T23:56:04.472Z,17.73
2019-02-15T23:58:32.709Z,12.88
